createdAt,value
2023-04-18T00:01:10.094Z,100000.06
2023-04-18T00:03:39.565Z,99995.03
2023-04-18T00:06:07.634Z,99982.00
2023-04-18T00:08:35.132Z,99971.75
2023-04-18T00:11:02.690Z,99969.47
2023-04-18T00:13:30.335Z,99993.50
2023-04-18T00:15:57.920Z,99979.03
2023-04-18T00:18:27.316Z,99973.28
2023-04-18T00:20:55.344Z,99986.56
2023-04-18T00:23:23.509Z,99958.91
2023-04-18T00:25:51.394Z,99965.59
2023-04-18T00:28:19.231Z,99970.53
2023-04-18T00:31:14.533Z,99986.56
2023-04-18T00:33:42.563Z,99969.50
2023-04-18T00:36:11.021Z,99965.28
2023-04-18T00:38:38.625Z,99978.56
2023-04-18T00:41:08.461Z,99971.75
2023-04-18T00:43:36.588Z,99969.50
2023-04-18T00:46:04.124Z,99965.03
2023-04-18T00:48:31.638Z,99968.66
2023-04-18T00:51:00.896Z,99966.88
2023-04-18T00:53:29.525Z,99959.16
2023-04-18T00:55:57.160Z,99978.53
2023-04-18T00:58:25.379Z,99972.88
2023-04-18T01:01:40.383Z,99986.16
2023-04-18T01:07:02.970Z,99969.00
2023-04-18T01:09:31.130Z,99962.53
2023-04-18T01:11:58.990Z,99987.16
2023-04-18T01:14:27.526Z,99984.09
2023-04-18T01:16:55.206Z,99987.75
2023-04-18T01:19:23.737Z,99997.50
2023-04-18T01:21:54.305Z,99968.53
2023-04-18T01:24:25.077Z,99963.00
2023-04-18T01:26:52.856Z,99981.41
2023-04-18T01:29:20.253Z,99987.22
2023-04-18T01:31:48.304Z,99967.66
2023-04-18T01:34:18.571Z,99988.41
2023-04-18T01:36:46.905Z,99957.75
2023-04-18T01:39:34.932Z,99977.09
2023-04-18T01:42:02.502Z,99974.75
2023-04-18T01:44:29.873Z,99971.22
2023-04-18T01:46:57.603Z,99978.44
2023-04-18T01:49:28.218Z,99950.38
2023-04-18T01:55:22.339Z,99957.56
2023-04-18T01:58:19.329Z,99977.88
2023-04-18T02:00:47.319Z,99967.56
2023-04-18T02:03:15.941Z,99944.25
2023-04-18T02:05:43.516Z,99962.84
2023-04-18T02:08:17.740Z,99959.03
2023-04-18T02:10:47.301Z,99946.81
2023-04-18T02:13:23.762Z,99962.84
2023-04-18T02:15:58.317Z,99958.97
2023-04-18T02:18:31.803Z,99977.47
2023-04-18T02:21:24.593Z,99981.72
2023-04-18T02:26:44.122Z,99959.16
2023-04-18T02:33:09.940Z,99962.09
2023-04-18T02:36:35.598Z,99977.59
2023-04-18T02:39:12.540Z,99958.06
2023-04-18T02:41:40.281Z,99945.44
2023-04-18T02:46:52.209Z,99942.03
2023-04-18T02:55:14.343Z,99945.97
2023-04-18T02:57:50.903Z,99967.44
2023-04-18T03:00:24.764Z,99936.41
2023-04-18T03:02:55.602Z,99954.34
2023-04-18T03:05:28.900Z,99950.19
2023-04-18T03:08:08.596Z,99937.97
2023-04-18T03:10:39.271Z,99946.97
2023-04-18T03:13:08.462Z,99931.53
2023-04-18T03:15:54.636Z,99950.88
2023-04-18T03:18:29.777Z,99948.25
2023-04-18T03:21:05.410Z,99941.75
2023-04-18T03:23:40.413Z,99928.25
2023-04-18T03:26:18.112Z,99940.03
2023-04-18T03:28:52.477Z,99929.25
2023-04-18T03:31:22.440Z,99955.22
2023-04-18T03:34:38.796Z,99972.38
2023-04-18T03:37:10.587Z,99954.03
2023-04-18T03:45:18.502Z,99949.81
2023-04-18T03:47:46.597Z,99979.16
2023-04-18T03:50:15.469Z,99948.41
2023-04-18T03:53:15.229Z,99976.81
2023-04-18T03:55:44.398Z,99969.69
2023-04-18T03:58:14.676Z,99964.16
2023-04-18T04:00:41.974Z,99953.00
2023-04-18T04:03:10.126Z,99971.97
2023-04-18T04:05:37.996Z,99973.78
2023-04-18T04:08:06.158Z,99971.63
2023-04-18T04:10:34.082Z,99946.00
2023-04-18T04:13:02.263Z,99969.94
2023-04-18T04:15:29.979Z,99951.59
2023-04-18T04:17:57.834Z,99962.19
2023-04-18T04:20:30.405Z,99971.03
2023-04-18T04:22:59.581Z,99975.34
2023-04-18T04:25:34.311Z,99954.78
2023-04-18T04:28:05.288Z,99952.56
2023-04-18T04:30:34.405Z,99956.34
2023-04-18T04:33:02.758Z,99976.03
2023-04-18T04:35:30.200Z,99966.13
2023-04-18T04:38:22.055Z,99970.91
2023-04-18T06:25:08.462Z,100000.06
2023-04-18T06:27:41.536Z,100005.03
2023-04-18T06:30:24.419Z,99985.41
2023-04-18T06:32:52.706Z,100002.13
2023-04-18T06:38:14.343Z,99989.72
2023-04-18T11:19:39.756Z,100090.06
2023-04-18T13:58:03.847Z,100099.16
2023-04-18T14:39:12.999Z,100075.84
2023-04-18T15:08:21.950Z,100075.22
2023-04-18T15:13:52.916Z,100053.56
2023-04-18T15:22:39.015Z,100068.16
2023-04-18T15:38:01.034Z,100086.41
2023-04-18T16:36:37.728Z,100091.31
2023-04-18T16:39:50.860Z,100096.53
2023-04-18T16:49:24.296Z,100083.50
2023-04-18T16:52:43.165Z,100087.88
2023-04-18T16:56:14.662Z,100101.81
2023-04-18T17:01:57.800Z,100079.13
2023-04-18T17:04:29.992Z,100065.47
2023-04-18T17:37:01.764Z,100062.31
2023-04-18T17:50:03.674Z,100086.19
2023-04-18T17:52:31.516Z,100066.34
2023-04-18T17:58:36.476Z,100069.75
2023-04-18T18:01:07.482Z,100092.78
2023-04-18T18:03:35.219Z,100079.84
2023-04-18T18:06:02.994Z,100061.50
2023-04-18T18:08:32.052Z,100089.34
2023-04-18T18:11:01.943Z,100075.63
2023-04-18T18:13:29.831Z,100074.53
2023-04-18T18:15:58.535Z,100072.88
2023-04-18T18:18:29.341Z,100071.06
2023-04-18T18:21:04.508Z,100047.78
2023-04-18T18:23:32.270Z,100077.63
2023-04-18T18:25:59.792Z,100075.44
2023-04-18T18:28:28.091Z,100060.59
2023-04-18T18:30:59.041Z,100090.91
2023-04-18T18:33:26.402Z,100063.84
2023-04-18T18:51:38.280Z,100088.78
2023-04-18T18:54:06.952Z,100064.06
2023-04-18T18:59:34.916Z,100078.31
2023-04-18T19:02:03.486Z,100091.72
2023-04-18T19:14:33.912Z,100063.66
2023-04-18T20:13:23.722Z,100086.03
2023-04-18T20:19:19.918Z,100090.78
2023-04-18T20:22:07.253Z,100088.84
2023-04-18T20:24:45.496Z,100072.50
2023-04-18T20:27:20.176Z,100073.00
2023-04-18T20:29:48.258Z,100070.75
2023-04-18T20:32:17.542Z,100084.47
2023-04-18T20:34:48.755Z,100110.91
2023-04-18T20:40:07.245Z,100065.00
2023-04-18T20:45:13.031Z,100072.59
2023-04-18T20:47:45.984Z,100083.25
2023-04-18T20:50:24.199Z,100076.06
2023-04-18T20:52:52.141Z,100085.19
2023-04-18T20:55:25.579Z,100094.06
2023-04-18T21:00:45.714Z,100073.41
2023-04-18T21:03:24.172Z,100089.44
2023-04-18T21:11:32.652Z,100087.91
2023-04-18T21:14:10.758Z,100078.00
2023-04-18T21:21:57.609Z,100091.06
2023-04-18T21:24:30.073Z,100083.41
2023-04-18T21:26:59.094Z,100109.75
2023-04-18T21:29:27.710Z,100084.97
2023-04-18T21:31:56.492Z,100120.94
2023-04-18T21:34:27.678Z,100091.00
2023-04-18T21:36:55.241Z,100099.88
2023-04-18T21:40:14.081Z,100114.38
2023-04-18T21:42:51.833Z,100098.69
2023-04-18T21:45:35.487Z,100080.41
2023-04-18T21:50:53.922Z,100102.69
2023-04-18T21:53:24.325Z,100113.34
2023-04-18T21:56:06.524Z,100103.47
2023-04-18T22:02:01.849Z,100093.56
2023-04-18T22:15:18.672Z,100108.53
2023-04-18T22:18:17.121Z,100114.66
2023-04-18T22:24:32.379Z,100083.47
2023-04-18T22:27:07.111Z,100122.13
2023-04-18T22:29:36.576Z,100087.38
2023-04-18T22:32:11.123Z,100087.38
2023-04-18T22:34:39.814Z,100103.16
2023-04-18T22:37:07.399Z,100103.09
2023-04-18T22:39:38.152Z,100088.91
2023-04-18T22:42:08.421Z,100084.03
2023-04-18T22:44:35.909Z,100085.94
2023-04-18T22:47:03.902Z,100102.75
2023-04-18T22:52:29.295Z,100087.53
2023-04-18T22:54:56.889Z,100089.13
2023-04-18T22:57:26.948Z,100102.59
2023-04-18T22:59:57.767Z,100077.78
2023-04-18T23:02:56.999Z,100116.56
2023-04-18T23:05:25.076Z,100111.56
2023-04-18T23:07:52.645Z,100095.94
2023-04-18T23:10:23.019Z,100110.47
2023-04-18T23:12:51.021Z,100084.53
2023-04-18T23:15:21.144Z,100075.44
2023-04-18T23:17:49.298Z,100088.84
2023-04-18T23:20:17.661Z,100087.00
2023-04-18T23:26:25.836Z,100092.75
2023-04-18T23:28:54.204Z,100106.16
2023-04-18T23:31:22.657Z,100079.28
2023-04-18T23:33:50.284Z,100086.56
2023-04-18T23:36:19.808Z,100093.09
2023-04-18T23:38:47.519Z,100089.59
2023-04-18T23:41:15.389Z,100095.31
2023-04-18T23:43:43.449Z,100111.69
2023-04-18T23:46:12.838Z,100086.44
2023-04-18T23:48:42.787Z,100109.88
2023-04-18T23:51:10.885Z,100106.09
2023-04-18T23:53:39.013Z,100075.66
2023-04-18T23:56:06.584Z,100081.13
2023-04-18T23:58:36.256Z,100094.91
